Time;durP1;ratioP1;P1;durP2;ratioP2;P2;SDS_P1;SDS_P2;PMS_P1;PMS_P2;Temp;Humidity;BMP_temperature;BMP_pressure;BME280_temperature;BME280_humidity;BME280_pressure;Samples;Min_cycle;Max_cycle;Signal;HPM_P1;HPM_P2
2022/01/27 00:00:43;;;;;;;0.00;0.00;;;7.50;99.90;;;;;;6217338;23;20040;-73
2022/01/27 00:05:49;;;;;;;0.00;0.00;;;7.40;99.90;;;;;;6220107;23;20409;-72
2022/01/27 00:08:21;;;;;;;0.00;0.00;;;7.40;99.90;;;;;;6220737;23;20437;-72
2022/01/27 00:10:57;;;;;;;0.00;0.00;;;7.40;99.90;;;;;;6223229;23;20004;-72
2022/01/27 00:13:29;;;;;;;0.00;0.00;;;7.40;99.90;;;;;;6219279;23;20112;-72
2022/01/27 00:16:10;;;;;;;0.00;0.00;;;7.40;99.90;;;;;;6222850;23;19993;-72
2022/01/27 00:18:36;;;;;;;0.00;0.00;;;7.40;99.90;;;;;;6217996;23;20000;-72
2022/01/27 00:21:02;;;;;;;0.00;0.00;;;7.40;99.90;;;;;;6219353;23;20031;-72
2022/01/27 00:23:27;;;;;;;0.00;0.00;;;7.50;99.90;;;;;;6220729;23;20372;-72
2022/01/27 00:25:53;;;;;;;0.00;0.00;;;7.40;99.90;;;;;;6218525;23;20429;-72
2022/01/27 00:28:19;;;;;;;0.00;0.00;;;7.30;99.90;;;;;;6219654;23;19997;-72
2022/01/27 00:30:44;;;;;;;0.00;0.00;;;7.30;99.90;;;;;;6224300;23;20062;-72
2022/01/27 00:33:10;;;;;;;0.00;0.00;;;7.30;99.90;;;;;;6223096;23;20008;-72
2022/01/27 00:35:36;;;;;;;0.00;0.00;;;7.20;99.90;;;;;;6225394;23;20001;-71
2022/01/27 00:38:02;;;;;;;0.00;0.00;;;7.40;99.90;;;;;;6220950;23;20041;-72
2022/01/27 00:40:28;;;;;;;0.00;0.00;;;7.40;99.90;;;;;;6223930;23;20063;-72
2022/01/27 00:42:54;;;;;;;0.00;0.00;;;7.50;99.90;;;;;;6217965;23;20001;-71
2022/01/27 00:45:22;;;;;;;0.00;0.00;;;7.50;99.90;;;;;;6217631;23;20074;-71
2022/01/27 00:47:48;;;;;;;0.00;0.00;;;7.50;99.90;;;;;;6217613;23;20122;-72
2022/01/27 00:50:17;;;;;;;0.00;0.00;;;7.60;99.90;;;;;;6222271;23;20004;-71
2022/01/27 00:52:47;;;;;;;0.00;0.00;;;7.60;99.90;;;;;;6225388;23;19997;-72
2022/01/27 00:55:15;;;;;;;0.00;0.00;;;7.70;99.90;;;;;;6225394;23;20289;-71
2022/01/27 01:00:23;;;;;;;0.00;0.00;;;7.70;99.90;;;;;;6217601;23;20172;-72
2022/01/27 01:02:55;;;;;;;0.00;0.00;;;7.70;99.90;;;;;;6215631;23;20004;-74
2022/01/27 01:07:56;;;;;;;0.00;0.00;;;7.90;99.90;;;;;;6220545;23;20005;-72
2022/01/27 01:15:40;;;;;;;0.00;0.00;;;8.10;99.90;;;;;;6217094;23;20000;-73
2022/01/27 01:18:22;;;;;;;0.00;0.00;;;8.20;99.90;;;;;;6218791;23;20004;-72
2022/01/27 01:32:20;;;;;;;0.00;0.00;;;8.30;99.90;;;;;;6206476;23;20000;-71
2022/01/27 01:34:48;;;;;;;0.00;0.00;;;8.30;99.90;;;;;;6215523;23;20083;-72
2022/01/27 01:37:17;;;;;;;0.00;0.00;;;8.40;99.90;;;;;;6217035;23;20001;-73
2022/01/27 01:39:43;;;;;;;0.00;0.00;;;8.40;99.90;;;;;;6215619;23;20337;-73
2022/01/27 01:42:13;;;;;;;0.00;0.00;;;8.40;99.90;;;;;;6214829;23;20001;-72
2022/01/27 01:44:39;;;;;;;0.00;0.00;;;8.40;99.90;;;;;;6213455;23;20306;-73
2022/01/27 01:47:06;;;;;;;0.00;0.00;;;8.50;99.90;;;;;;6217235;23;20015;-71
2022/01/27 01:49:34;;;;;;;;;;;8.50;99.90;;;;;;6216501;23;20004;-72
2022/01/27 01:52:06;;;;;;;0.00;0.00;;;8.50;99.90;;;;;;6213101;23;20328;-72
2022/01/27 01:54:32;;;;;;;0.00;0.00;;;8.50;99.90;;;;;;6213149;23;20005;-72
2022/01/27 01:56:58;;;;;;;0.00;0.00;;;8.50;99.90;;;;;;6218283;23;20681;-71
2022/01/27 01:59:23;;;;;;;;;;;8.50;99.90;;;;;;6219936;23;20008;-71
2022/01/27 02:01:49;;;;;;;0.00;0.00;;;8.60;99.90;;;;;;6211232;23;20227;-71
2022/01/27 02:04:15;;;;;;;0.00;0.00;;;8.70;99.90;;;;;;6216303;23;20001;-71
2022/01/27 02:06:54;;;;;;;0.00;0.00;;;8.70;99.90;;;;;;6213327;23;19997;-71
2022/01/27 02:09:29;;;;;;;0.00;0.00;;;8.60;99.90;;;;;;6216050;23;20100;-73
2022/01/27 02:20:10;;;;;;;0.00;0.00;;;8.60;99.90;;;;;;6212064;23;20065;-73
2022/01/27 02:22:36;;;;;;;0.00;0.00;;;8.50;99.90;;;;;;6214561;23;20068;-72
2022/01/27 02:25:03;;;;;;;0.00;0.00;;;8.60;99.90;;;;;;6214651;23;20659;-75
2022/01/27 02:27:29;;;;;;;0.00;0.00;;;8.60;99.90;;;;;;6212502;23;20000;-73
2022/01/27 02:29:55;;;;;;;0.00;0.00;;;8.50;99.90;;;;;;6214991;23;20000;-74
2022/01/27 02:32:22;;;;;;;0.00;0.00;;;8.50;99.90;;;;;;6215535;23;20008;-72
2022/01/27 02:34:49;;;;;;;0.00;0.00;;;8.50;99.90;;;;;;6215297;23;20000;-73
2022/01/27 02:37:15;;;;;;;;;;;8.60;99.90;;;;;;6216389;23;20009;-72
2022/01/27 02:39:41;;;;;;;0.00;0.00;;;8.60;99.90;;;;;;6217071;23;19908;-72
2022/01/27 02:42:31;;;;;;;0.00;0.00;;;8.70;99.90;;;;;;6219408;23;20054;-72
2022/01/27 02:44:57;;;;;;;0.00;0.00;;;8.70;99.90;;;;;;6215451;23;20456;-74
2022/01/27 02:47:25;;;;;;;0.00;0.00;;;8.70;99.90;;;;;;6214896;23;20016;-73
2022/01/27 02:49:51;;;;;;;0.00;0.00;;;8.60;99.90;;;;;;6216193;23;20003;-72
2022/01/27 02:52:17;;;;;;;0.00;0.00;;;8.60;99.90;;;;;;6215263;23;20001;-73
2022/01/27 02:54:42;;;;;;;;;;;8.60;99.90;;;;;;6213920;23;19992;-73
2022/01/27 02:57:09;;;;;;;0.00;0.00;;;8.60;99.90;;;;;;6215294;23;19904;-74
2022/01/27 02:59:34;;;;;;;0.00;0.00;;;8.70;99.90;;;;;;6215229;23;20014;-73
2022/01/27 03:02:00;;;;;;;0.00;0.00;;;8.70;99.90;;;;;;6213913;23;20428;-72
2022/01/27 03:04:30;;;;;;;0.00;0.00;;;8.60;99.90;;;;;;6215789;23;20024;-73
2022/01/27 03:06:56;;;;;;;0.00;0.00;;;8.70;99.90;;;;;;6215892;23;20343;-72
2022/01/27 03:09:22;;;;;;;0.00;0.00;;;8.70;99.90;;;;;;6214742;23;20436;-73
2022/01/27 03:11:56;;;;;;;0.00;0.00;;;8.80;99.90;;;;;;6214981;23;20097;-73
2022/01/27 03:14:24;;;;;;;0.00;0.00;;;8.80;99.90;;;;;;6214347;23;20021;-72
2022/01/27 03:16:54;;;;;;;0.00;0.00;;;8.90;99.90;;;;;;6216010;23;20071;-73
2022/01/27 03:19:21;;;;;;;0.00;0.00;;;8.90;99.90;;;;;;6212996;23;20444;-73
2022/01/27 03:21:46;;;;;;;0.00;0.00;;;8.90;99.90;;;;;;6213190;23;20062;-73
2022/01/27 03:24:12;;;;;;;0.00;0.00;;;8.90;99.90;;;;;;6214394;23;20005;-73
2022/01/27 03:26:39;;;;;;;;;;;8.90;99.90;;;;;;6214939;23;20072;-73
2022/01/27 03:29:05;;;;;;;0.00;0.00;;;8.90;99.90;;;;;;6214220;23;19900;-74
2022/01/27 03:31:31;;;;;;;0.00;0.00;;;8.90;99.90;;;;;;6209928;23;20319;-73
2022/01/27 03:33:57;;;;;;;0.00;0.00;;;9.00;99.90;;;;;;6212849;23;20004;-72
2022/01/27 03:36:23;;;;;;;0.00;0.00;;;9.00;99.90;;;;;;6210682;23;20084;-72
2022/01/27 03:38:49;;;;;;;0.00;0.00;;;9.00;99.90;;;;;;6213585;23;20369;-74
2022/01/27 03:41:19;;;;;;;0.00;0.00;;;9.00;99.90;;;;;;6211371;23;20012;-74
2022/01/27 03:43:46;;;;;;;0.00;0.00;;;9.00;99.90;;;;;;6213007;23;20425;-72
2022/01/27 03:46:12;;;;;;;0.00;0.00;;;9.00;99.90;;;;;;6214342;23;20000;-74
2022/01/27 03:48:38;;;;;;;0.00;0.00;;;9.00;99.90;;;;;;6213544;23;20001;-72
2022/01/27 03:51:04;;;;;;;0.00;0.00;;;9.00;99.90;;;;;;6214013;23;20387;-73
2022/01/27 03:53:30;;;;;;;0.00;0.00;;;9.00;99.90;;;;;;6213105;23;20548;-73
2022/01/27 03:55:56;;;;;;;0.00;0.00;;;9.10;99.90;;;;;;6213633;23;20441;-73
2022/01/27 03:58:22;;;;;;;0.00;0.00;;;9.10;99.90;;;;;;6214415;23;20015;-73
2022/01/27 04:00:48;;;;;;;0.00;0.00;;;9.10;99.90;;;;;;6213658;23;20000;-72
2022/01/27 04:03:16;;;;;;;0.00;0.00;;;9.10;99.90;;;;;;6212936;23;20000;-74
2022/01/27 04:05:49;;;;;;;0.00;0.00;;;9.10;99.90;;;;;;6214098;23;20321;-73
2022/01/27 04:08:15;;;;;;;0.00;0.00;;;9.10;99.90;;;;;;6214650;23;20441;-72
2022/01/27 04:10:42;;;;;;;0.00;0.00;;;9.10;99.90;;;;;;6215773;23;20013;-74
2022/01/27 04:13:08;;;;;;;0.00;0.00;;;9.00;99.90;;;;;;6218998;23;20012;-72
2022/01/27 04:15:35;;;;;;;0.00;0.00;;;9.00;99.90;;;;;;6214777;23;19993;-74
2022/01/27 04:18:01;;;;;;;0.00;0.00;;;9.00;99.90;;;;;;6214865;23;20000;-73
2022/01/27 04:20:27;;;;;;;;;;;9.00;99.90;;;;;;6214495;23;20032;-73
2022/01/27 04:22:53;;;;;;;0.00;0.00;;;8.90;99.90;;;;;;6214522;23;19904;-72
2022/01/27 04:25:18;;;;;;;0.00;0.00;;;9.00;99.90;;;;;;6214259;23;20609;-73
2022/01/27 04:27:49;;;;;;;0.00;0.00;;;9.00;99.90;;;;;;6213270;23;20071;-72
2022/01/27 04:30:18;;;;;;;0.00;0.00;;;9.00;99.90;;;;;;6213732;23;20004;-73
2022/01/27 04:32:49;;;;;;;0.00;0.00;;;9.10;99.90;;;;;;6213409;23;20024;-73
2022/01/27 04:35:19;;;;;;;0.00;0.00;;;9.00;99.90;;;;;;6212199;23;20313;-73
2022/01/27 04:40:31;;;;;;;0.00;0.00;;;9.10;99.90;;;;;;6214411;23;20048;-73
2022/01/27 04:43:10;;;;;;;0.00;0.00;;;9.10;99.90;;;;;;6213583;23;20433;-73
2022/01/27 04:45:51;;;;;;;0.00;0.00;;;9.10;99.90;;;;;;6214251;23;20416;-73
2022/01/27 04:48:20;;;;;;;0.00;0.00;;;9.00;99.90;;;;;;6213222;23;20044;-72
2022/01/27 04:50:46;;;;;;;0.00;0.00;;;8.90;99.90;;;;;;6213950;23;20070;-72
2022/01/27 04:53:24;;;;;;;0.00;0.00;;;8.90;99.90;;;;;;6213919;23;20488;-72
2022/01/27 04:55:50;;;;;;;0.00;0.00;;;8.90;99.90;;;;;;6214076;23;20016;-73
2022/01/27 04:58:22;;;;;;;0.00;0.00;;;9.00;99.90;;;;;;6214259;23;20005;-74
2022/01/27 05:00:48;;;;;;;0.00;0.00;;;8.80;99.90;;;;;;6212668;23;20010;-73
2022/01/27 05:03:24;;;;;;;0.00;0.00;;;8.80;99.90;;;;;;6213286;23;20396;-73
2022/01/27 05:05:52;;;;;;;0.00;0.00;;;8.80;99.90;;;;;;6213530;23;20436;-74
2022/01/27 05:08:19;;;;;;;0.00;0.00;;;8.80;99.90;;;;;;6212238;23;20713;-73
2022/01/27 05:10:55;;;;;;;0.00;0.00;;;8.80;99.90;;;;;;6212528;23;20004;-73
2022/01/27 05:13:23;;;;;;;0.00;0.00;;;8.80;99.90;;;;;;6214210;23;20020;-73
2022/01/27 05:15:49;;;;;;;0.00;0.00;;;8.80;99.90;;;;;;6214221;23;20004;-73
2022/01/27 05:18:15;;;;;;;0.00;0.00;;;8.80;99.90;;;;;;6213153;23;19996;-72
2022/01/27 18:51:38;;;;;;;0.00;0.00;;;7.60;99.90;;;;;;6239614;22;20111;-78
2022/01/27 18:54:05;;;;;;;0.00;0.00;;;7.60;99.90;;;;;;6234077;22;20043;-76
2022/01/27 18:56:31;;;;;;;0.00;0.00;;;7.50;99.90;;;;;;6241881;22;20000;-77
2022/01/27 18:58:57;;;;;;;0.00;0.00;;;7.40;99.90;;;;;;6244750;23;20083;-77
2022/01/27 19:01:23;;;;;;;0.00;0.00;;;7.40;99.90;;;;;;6243448;23;20533;-76
2022/01/27 19:03:49;;;;;;;0.00;0.00;;;7.30;99.90;;;;;;6243011;22;20026;-76
2022/01/27 19:06:14;;;;;;;0.00;0.00;;;7.20;99.90;;;;;;6266518;22;20332;-77
2022/01/27 19:08:40;;;;;;;0.00;0.00;;;7.10;99.90;;;;;;6241435;23;20000;-76
2022/01/27 19:11:06;;;;;;;0.00;0.00;;;7.10;99.90;;;;;;6242805;23;20015;-77
2022/01/27 19:13:32;;;;;;;0.00;0.00;;;7.10;99.90;;;;;;6244875;23;19999;-78
2022/01/27 19:15:58;;;;;;;0.00;0.00;;;7.10;99.90;;;;;;6245474;22;20004;-77
2022/01/27 19:18:24;;;;;;;0.00;0.00;;;7.10;99.90;;;;;;6243975;23;20004;-77
2022/01/27 19:20:51;;;;;;;0.00;0.00;;;7.10;99.90;;;;;;6244693;23;20008;-76
2022/01/27 19:23:22;;;;;;;0.00;0.00;;;7.20;99.90;;;;;;6244635;22;20001;-77
2022/01/27 19:25:52;;;;;;;0.00;0.00;;;7.10;99.90;;;;;;6246608;23;20083;-76
2022/01/27 19:28:18;;;;;;;0.00;0.00;;;7.00;99.90;;;;;;6244778;23;20004;-77
2022/01/27 19:30:45;;;;;;;0.00;0.00;;;6.80;99.90;;;;;;6245694;22;19996;-77
2022/01/27 19:33:11;;;;;;;0.00;0.00;;;6.70;99.90;;;;;;6245469;23;19997;-74
2022/01/27 19:35:37;;;;;;;0.00;0.00;;;6.50;99.90;;;;;;6244488;22;20404;-76
2022/01/27 19:38:06;;;;;;;0.00;0.00;;;6.40;99.90;;;;;;6245302;22;20000;-74
2022/01/27 19:40:33;;;;;;;0.00;0.00;;;6.30;99.90;;;;;;6266553;22;20075;-77
2022/01/27 19:42:59;;;;;;;0.00;0.00;;;6.20;99.90;;;;;;6243382;22;20446;-76
2022/01/27 19:45:26;;;;;;;0.00;0.00;;;6.30;99.90;;;;;;6245487;22;19996;-77
2022/01/27 19:47:53;;;;;;;0.00;0.00;;;6.30;99.90;;;;;;6245901;23;19996;-77
2022/01/27 19:50:19;;;;;;;0.00;0.00;;;6.30;99.90;;;;;;6241268;23;20036;-76
2022/01/27 19:52:52;;;;;;;0.00;0.00;;;6.30;99.90;;;;;;6244203;23;20519;-77
2022/01/27 19:55:21;;;;;;;0.00;0.00;;;6.20;99.90;;;;;;6240570;22;20069;-76
2022/01/27 19:57:48;;;;;;;0.00;0.00;;;6.20;99.90;;;;;;6245686;22;20031;-77
2022/01/27 20:00:19;;;;;;;0.00;0.00;;;6.20;99.90;;;;;;6243238;22;20011;-75
2022/01/27 20:02:48;;;;;;;0.00;0.00;;;6.10;99.90;;;;;;6242053;22;20515;-77
2022/01/27 20:05:14;;;;;;;0.00;0.00;;;6.10;99.90;;;;;;6244950;22;20549;-78
2022/01/27 20:07:51;;;;;;;0.00;0.00;;;6.10;99.90;;;;;;6246070;22;19992;-77
2022/01/27 20:10:17;;;;;;;0.00;0.00;;;6.00;99.90;;;;;;6244316;23;20008;-78
2022/01/27 20:12:43;;;;;;;0.00;0.00;;;6.00;99.90;;;;;;6245038;23;20010;-77
2022/01/27 20:15:09;;;;;;;0.00;0.00;;;6.00;99.90;;;;;;6248769;23;20027;-77
2022/01/27 20:17:35;;;;;;;0.00;0.00;;;6.00;99.90;;;;;;6262096;22;20001;-78
2022/01/27 20:20:00;;;;;;;0.00;0.00;;;6.00;99.90;;;;;;6263313;23;20000;-77
2022/01/27 20:22:30;;;;;;;0.00;0.00;;;6.00;99.90;;;;;;6259293;23;20054;-77
2022/01/27 20:24:55;;;;;;;0.00;0.00;;;6.10;99.90;;;;;;6265246;22;20072;-76
2022/01/27 20:27:21;;;;;;;0.00;0.00;;;6.10;99.90;;;;;;6263167;22;19996;-77
2022/01/27 20:29:47;;;;;;;0.00;0.00;;;5.90;99.90;;;;;;6262874;23;20001;-77
2022/01/27 20:32:13;;;;;;;0.00;0.00;;;5.70;99.90;;;;;;6250007;22;19996;-74
2022/01/27 20:34:38;;;;;;;0.00;0.00;;;5.70;99.90;;;;;;6246905;23;20012;-77
2022/01/27 20:37:05;;;;;;;0.00;0.00;;;5.70;99.90;;;;;;6244352;23;20012;-76
2022/01/27 20:39:35;;;;;;;0.00;0.00;;;5.60;99.90;;;;;;6245118;22;20004;-74
2022/01/27 20:42:01;;;;;;;0.00;0.00;;;5.50;99.90;;;;;;6242431;22;20390;-76
2022/01/27 20:44:27;;;;;;;0.00;0.00;;;5.50;99.90;;;;;;6243357;23;20027;-77
2022/01/27 20:46:53;;;;;;;;;;;5.50;99.90;;;;;;6245341;22;19996;-76
2022/01/27 20:49:19;;;;;;;0.00;0.00;;;5.60;99.90;;;;;;6243472;22;20017;-76
2022/01/27 20:51:44;;;;;;;0.00;0.00;;;5.70;99.90;;;;;;6244844;23;20044;-76
2022/01/27 20:54:10;;;;;;;0.00;0.00;;;5.80;99.90;;;;;;6245250;23;20379;-76
2022/01/27 20:56:36;;;;;;;0.00;0.00;;;5.90;99.90;;;;;;6242399;23;20031;-74
2022/01/27 20:59:02;;;;;;;0.00;0.00;;;5.90;99.90;;;;;;6246077;22;20003;-76
2022/01/27 21:01:27;;;;;;;0.00;0.00;;;5.80;99.90;;;;;;6243629;22;20014;-76
2022/01/27 21:03:54;;;;;;;0.00;0.00;;;5.60;99.90;;;;;;6243144;22;20425;-75
2022/01/27 21:06:19;;;;;;;;;;;5.50;99.90;;;;;;6243899;22;20022;-77
2022/01/27 21:08:45;;;;;;;0.00;0.00;;;5.50;99.90;;;;;;6241697;23;19899;-76
2022/01/27 21:11:12;;;;;;;0.00;0.00;;;5.50;99.90;;;;;;6244784;23;20004;-76
2022/01/27 21:13:38;;;;;;;0.00;0.00;;;5.40;99.90;;;;;;6244602;22;20006;-77
2022/01/27 21:16:07;;;;;;;0.00;0.00;;;5.30;99.90;;;;;;6242712;22;20031;-77
2022/01/27 21:18:35;;;;;;;0.00;0.00;;;5.30;99.90;;;;;;6243555;23;19996;-76
2022/01/27 21:21:01;;;;;;;0.00;0.00;;;5.30;99.90;;;;;;6240676;22;20083;-76
2022/01/27 21:23:27;;;;;;;0.00;0.00;;;5.30;99.90;;;;;;6242611;22;20105;-77
2022/01/27 21:25:52;;;;;;;0.00;0.00;;;5.10;99.90;;;;;;6243959;22;20421;-76
2022/01/27 21:28:18;;;;;;;0.00;0.00;;;5.00;99.90;;;;;;6243730;23;19996;-76
2022/01/27 21:30:45;;;;;;;0.00;0.00;;;5.00;99.90;;;;;;6243895;22;20008;-77
2022/01/27 21:33:11;;;;;;;0.00;0.00;;;5.20;99.90;;;;;;6247677;22;20008;-77
2022/01/27 21:35:37;;;;;;;0.00;0.00;;;5.30;99.90;;;;;;6270478;22;20425;-75
2022/01/27 21:38:05;;;;;;;0.00;0.00;;;5.40;99.90;;;;;;6241904;23;20452;-77
2022/01/27 21:40:30;;;;;;;0.00;0.00;;;5.20;99.90;;;;;;6244560;22;20004;-75
2022/01/27 21:42:56;;;;;;;0.00;0.00;;;5.00;99.90;;;;;;6243651;23;20062;-77
2022/01/27 21:45:22;;;;;;;0.00;0.00;;;4.90;99.90;;;;;;6245149;23;20000;-77
2022/01/27 21:47:48;;;;;;;0.00;0.00;;;4.80;99.90;;;;;;6243196;22;20110;-77
2022/01/27 21:50:15;;;;;;;0.00;0.00;;;4.70;99.90;;;;;;6242727;23;20019;-76
2022/01/27 21:52:41;;;;;;;0.00;0.00;;;4.80;99.90;;;;;;6245340;22;20000;-76
2022/01/27 21:55:08;;;;;;;0.00;0.00;;;4.90;99.90;;;;;;6245827;22;20024;-77
2022/01/27 21:57:39;;;;;;;0.00;0.00;;;4.90;99.90;;;;;;6252003;22;20010;-75
2022/01/27 22:00:08;;;;;;;0.00;0.00;;;4.80;99.90;;;;;;6251710;22;20008;-77
2022/01/27 22:02:35;;;;;;;0.00;0.00;;;4.60;99.90;;;;;;6243028;22;20000;-76
2022/01/27 22:05:01;;;;;;;0.00;0.00;;;4.50;99.90;;;;;;6242852;22;20074;-77
2022/01/27 22:07:28;;;;;;;0.00;0.00;;;4.40;99.90;;;;;;6240093;23;20421;-78
2022/01/27 22:09:55;;;;;;;0.00;0.00;;;4.30;99.90;;;;;;6241533;22;20030;-75
2022/01/27 22:12:21;;;;;;;0.00;0.00;;;4.30;99.90;;;;;;6243062;22;20001;-77
2022/01/27 22:14:47;;;;;;;;;;;4.30;99.90;;;;;;6241989;23;20004;-76
2022/01/27 22:17:13;;;;;;;0.00;0.00;;;4.30;99.90;;;;;;6241367;23;19953;-77
2022/01/27 22:19:38;;;;;;;0.00;0.00;;;4.40;99.90;;;;;;6242566;22;20001;-76
2022/01/27 22:22:04;;;;;;;0.00;0.00;;;4.50;99.90;;;;;;6241190;23;20409;-77
2022/01/27 22:24:30;;;;;;;0.00;0.00;;;4.60;99.90;;;;;;6243030;22;20083;-77
2022/01/27 22:26:56;;;;;;;0.00;0.00;;;4.70;99.90;;;;;;6240652;23;20083;-77
2022/01/27 22:29:25;;;;;;;0.00;0.00;;;4.90;99.90;;;;;;6240814;22;20103;-77
2022/01/27 22:31:52;;;;;;;0.00;0.00;;;4.90;99.90;;;;;;6241879;22;20001;-77
2022/01/27 22:34:19;;;;;;;0.00;0.00;;;4.60;99.90;;;;;;6241103;23;20424;-75
2022/01/27 22:36:44;;;;;;;0.00;0.00;;;4.50;99.90;;;;;;6242138;22;20335;-77
2022/01/27 22:39:10;;;;;;;0.00;0.00;;;4.20;99.90;;;;;;6241703;23;20004;-77
2022/01/27 22:41:37;;;;;;;0.00;0.00;;;4.10;99.90;;;;;;6239970;23;20015;-77
2022/01/27 22:44:06;;;;;;;0.00;0.00;;;3.90;99.90;;;;;;6242761;22;20008;-76
2022/01/27 22:46:33;;;;;;;0.00;0.00;;;3.80;99.90;;;;;;6244231;22;20011;-76
2022/01/27 22:48:58;;;;;;;0.00;0.00;;;3.90;99.90;;;;;;6242628;22;20052;-77
2022/01/27 22:51:24;;;;;;;0.00;0.00;;;4.00;99.90;;;;;;6243735;23;20416;-76
2022/01/27 22:53:50;;;;;;;0.00;0.00;;;4.10;99.90;;;;;;6243190;23;20019;-77
2022/01/27 22:56:15;;;;;;;0.00;0.00;;;4.10;99.90;;;;;;6240976;23;20518;-75
2022/01/27 22:58:42;;;;;;;0.00;0.00;;;4.10;99.90;;;;;;6245343;23;20054;-77
2022/01/27 23:01:08;;;;;;;0.00;0.00;;;4.00;99.90;;;;;;6241416;23;20058;-76
2022/01/27 23:03:33;;;;;;;0.00;0.00;;;3.90;99.90;;;;;;6243749;22;19996;-77
2022/01/27 23:05:59;;;;;;;0.00;0.00;;;3.80;99.90;;;;;;6243724;23;20005;-76
2022/01/27 23:08:32;;;;;;;0.00;0.00;;;3.70;99.90;;;;;;6241507;23;20499;-75
2022/01/27 23:11:00;;;;;;;0.00;0.00;;;3.60;99.90;;;;;;6243250;22;20298;-76
2022/01/27 23:13:30;;;;;;;0.00;0.00;;;3.70;99.90;;;;;;6243901;22;20000;-75
2022/01/27 23:21:18;;;;;;;0.00;0.00;;;3.50;99.90;;;;;;6245818;22;20012;-77
2022/01/27 23:23:44;;;;;;;0.00;0.00;;;3.40;99.90;;;;;;6245707;22;20008;-77
2022/01/27 23:28:46;;;;;;;0.00;0.00;;;3.30;99.90;;;;;;6245644;22;20007;-77
2022/01/27 23:33:43;;;;;;;0.00;0.00;;;3.20;99.90;;;;;;6261680;22;19988;-76
2022/01/27 23:36:14;;;;;;;0.00;0.00;;;3.20;99.90;;;;;;6267456;22;19992;-77
2022/01/27 23:38:50;;;;;;;0.00;0.00;;;3.10;99.90;;;;;;6266675;22;20008;-77
2022/01/27 23:42:09;;;;;;;0.00;0.00;;;3.20;99.90;;;;;;6265490;22;20010;-77
2022/01/27 23:49:22;;;;;;;0.00;0.00;;;3.10;99.90;;;;;;6258558;22;20040;-77
2022/01/27 23:56:47;;;;;;;0.00;0.00;;;3.30;99.90;;;;;;6262426;22;20004;-75
2022/01/27 23:59:18;;;;;;;0.00;0.00;;;3.40;99.90;;;;;;6265334;22;20027;-75
